Regulus — ZGAS3 — position and weather

sailwx.info

Track history (hours):
 
Tides and Currents Weather Stations Pressure Air Temp Water Temp Dewpoint Dewpoint Depression Visibility Wind Speed Wind Dir Waves Ship Positions

Regulus

Last reported at 2015-Jul-05 06:15 UTC. Time now 2015-Jul-05 07:45 UTC.
Position N 35°53' E 014°31'.

Length 40 m; draft 2.7 m.

Type: Pleasure craft. MMSI: 319474000.

Date/timePositionNaut miles runAvg speedWind from/ knotsBaromVisibWave heightAir tempDewpointWater temp
2015-Jul-05 06:15N 35°53' E 014°31'0 0.0
2015-Jul-05 04:27N 35°53' E 014°31'0 0.0
2015-Jul-05 03:33N 35°53' E 014°31'0 0.0
2015-Jul-05 02:33N 35°53' E 014°31'0 0.0
2015-Jul-05 01:33N 35°53' E 014°31'0 0.0
2015-Jul-04 22:18N 35°53' E 014°31'0 0.0
2015-Jul-04 21:24N 35°53' E 014°31'0 0.0
2015-Jul-04 15:18N 35°53' E 014°31'0 0.0
2015-Jul-03 20:30N 35°53' E 014°31'0 0.0
2015-Jul-03 11:33N 35°53' E 014°31'0 0.0
2015-Jul-02 21:12N 35°53' E 014°31'2 0.4
2015-Jul-02 14:33N 35°56' E 014°31'1 1.2
2015-Jul-02 13:33N 35°55' E 014°32'1 0.7
2015-Jul-02 11:30N 35°53' E 014°31'0 0.0
2015-Jul-02 07:25N 35°53' E 014°31'0 0.0
2015-Jul-02 03:31N 35°53' E 014°31'  
2015-Jun-29 18:33N 35°54' E 014°32'8 8.1
2015-Jun-29 17:33N 35°59' E 014°23'1 1.1
2015-Jun-29 16:33N 35°58' E 014°22'0 0.0
2015-Jun-29 15:33N 35°58' E 014°22'0 0.0
2015-Jun-29 14:33N 35°59' E 014°22'0 0.0
2015-Jun-29 13:31N 35°58' E 014°22'0 0.0
2015-Jun-29 12:28N 35°58' E 014°22'0 0.0
2015-Jun-29 11:31N 35°58' E 014°22'0 0.0
2015-Jun-29 10:31N 35°58' E 014°22'0 0.0
2015-Jun-29 09:28N 35°58' E 014°22'0 0.0
2015-Jun-29 08:31N 35°58' E 014°22'0 0.0
2015-Jun-29 07:31N 35°58' E 014°22'0 0.0
2015-Jun-29 06:31N 35°58' E 014°22'0 0.0
2015-Jun-29 05:31N 35°58' E 014°22'0 0.0
2015-Jun-29 04:28N 35°58' E 014°22'0 0.0
2015-Jun-29 03:31N 35°58' E 014°22'0 0.0
2015-Jun-29 02:31N 35°58' E 014°22'0 0.0
2015-Jun-29 01:31N 35°58' E 014°22'0 0.0
2015-Jun-29 00:31N 35°58' E 014°22'0 0.0
2015-Jun-28 23:31N 35°59' E 014°22'0 0.0
2015-Jun-28 22:31N 35°59' E 014°22'0 0.0
2015-Jun-28 21:31N 35°58' E 014°22'0 0.0
2015-Jun-28 20:31N 35°59' E 014°22'0 0.0
2015-Jun-28 19:31N 35°59' E 014°22'0 0.0
2015-Jun-28 18:33N 35°59' E 014°22'0 0.0
2015-Jun-28 17:33N 35°59' E 014°22'0 0.0
2015-Jun-28 16:33N 35°58' E 014°22'0 0.0
2015-Jun-28 15:33N 35°59' E 014°22'0 0.0
2015-Jun-28 14:33N 35°59' E 014°22'0 0.3
2015-Jun-28 13:33N 35°59' E 014°22'0 0.2
2015-Jun-28 12:33N 35°59' E 014°22'  
Track history (hours):
 
Tides and Currents Weather Stations Pressure Air Temp Water Temp Dewpoint Dewpoint Depression Visibility Wind Speed Wind Dir Waves Ship Positions

Regulus

Last reported at 2015-Jul-05 06:15 UTC. Time now 2015-Jul-05 07:45 UTC.
Position N 35°53' E 014°31'.

Length 40 m; draft 2.7 m.

Type: Pleasure craft. MMSI: 319474000.

Date/timePositionNaut miles runAvg speedWind from/ knotsBaromVisibWave heightAir tempDewpointWater temp
2015-Jul-05 06:15N 35°53' E 014°31'0 0.0
2015-Jul-05 04:27N 35°53' E 014°31'0 0.0
2015-Jul-05 03:33N 35°53' E 014°31'0 0.0
2015-Jul-05 02:33N 35°53' E 014°31'0 0.0
2015-Jul-05 01:33N 35°53' E 014°31'0 0.0
2015-Jul-04 22:18N 35°53' E 014°31'0 0.0
2015-Jul-04 21:24N 35°53' E 014°31'0 0.0
2015-Jul-04 15:18N 35°53' E 014°31'0 0.0
2015-Jul-03 20:30N 35°53' E 014°31'0 0.0
2015-Jul-03 11:33N 35°53' E 014°31'0 0.0
2015-Jul-02 21:12N 35°53' E 014°31'2 0.4
2015-Jul-02 14:33N 35°56' E 014°31'1 1.2
2015-Jul-02 13:33N 35°55' E 014°32'1 0.7
2015-Jul-02 11:30N 35°53' E 014°31'0 0.0
2015-Jul-02 07:25N 35°53' E 014°31'0 0.0
2015-Jul-02 03:31N 35°53' E 014°31'  
2015-Jun-29 18:33N 35°54' E 014°32'8 8.1
2015-Jun-29 17:33N 35°59' E 014°23'1 1.1
2015-Jun-29 16:33N 35°58' E 014°22'0 0.0
2015-Jun-29 15:33N 35°58' E 014°22'0 0.0
2015-Jun-29 14:33N 35°59' E 014°22'0 0.0
2015-Jun-29 13:31N 35°58' E 014°22'0 0.0
2015-Jun-29 12:28N 35°58' E 014°22'0 0.0
2015-Jun-29 11:31N 35°58' E 014°22'0 0.0
2015-Jun-29 10:31N 35°58' E 014°22'0 0.0
2015-Jun-29 09:28N 35°58' E 014°22'0 0.0
2015-Jun-29 08:31N 35°58' E 014°22'0 0.0
2015-Jun-29 07:31N 35°58' E 014°22'0 0.0
2015-Jun-29 06:31N 35°58' E 014°22'0 0.0
2015-Jun-29 05:31N 35°58' E 014°22'0 0.0
2015-Jun-29 04:28N 35°58' E 014°22'0 0.0
2015-Jun-29 03:31N 35°58' E 014°22'0 0.0
2015-Jun-29 02:31N 35°58' E 014°22'0 0.0
2015-Jun-29 01:31N 35°58' E 014°22'0 0.0
2015-Jun-29 00:31N 35°58' E 014°22'0 0.0
2015-Jun-28 23:31N 35°59' E 014°22'0 0.0
2015-Jun-28 22:31N 35°59' E 014°22'0 0.0
2015-Jun-28 21:31N 35°58' E 014°22'0 0.0
2015-Jun-28 20:31N 35°59' E 014°22'0 0.0
2015-Jun-28 19:31N 35°59' E 014°22'0 0.0
2015-Jun-28 18:33N 35°59' E 014°22'0 0.0
2015-Jun-28 17:33N 35°59' E 014°22'0 0.0
2015-Jun-28 16:33N 35°58' E 014°22'0 0.0
2015-Jun-28 15:33N 35°59' E 014°22'0 0.0
2015-Jun-28 14:33N 35°59' E 014°22'0 0.3
2015-Jun-28 13:33N 35°59' E 014°22'0 0.2
2015-Jun-28 12:33N 35°59' E 014°22'  

Dump ship's entire track history